Asbury Park, New Jersey
Current Conditions -  °F | °C
As of 8:55 PM on Friday 24 Oct 2014 (Local Time) from KBLM Reporting Station
Clear Clear  
Wind Chill: 55°   Ceiling: Unl
Heat Index: 55°   Visibility: 10mi
Dew Point: 45°   Wind: 5mph
Humidity: 67%   Direction: 290°WNW
Pressure: 29.82"   Gusts: NA
Location:  40.22°N, 74.01°W
Report Text: KBLM 250055Z AUTO 29004KT 10SM CLR 13/07 A2982 RMK AO1
Loading
Personal Weather Stations






























Interactive Weather Map New forecast layout! Learn more

10-Day Weather Forecast

Advertisements
Track Severe Weather on mobile